createdAt,value
2017-10-29T10:19:35.339Z,1003.6
2017-10-29T10:20:36.718Z,1003.6
2017-10-29T10:21:38.135Z,1003.6
2017-10-29T10:22:39.533Z,1003.8
2017-10-29T10:23:41.341Z,1003.7
2017-10-29T10:24:43.182Z,1003.7
2017-10-29T10:25:44.982Z,1003.7
2017-10-29T10:26:47.217Z,1003.7
2017-10-29T10:27:48.806Z,1003.8
2017-10-29T10:28:50.451Z,1004.0
2017-10-29T10:29:52.546Z,1003.7
2017-10-29T10:30:54.228Z,1003.8
2017-10-29T10:31:56.634Z,1003.8
2017-10-29T10:32:59.075Z,1003.8
2017-10-29T10:34:01.102Z,1003.7
2017-10-29T10:35:04.141Z,1003.8
2017-10-29T10:36:05.804Z,1003.9
2017-10-29T10:37:07.724Z,1004.0
2017-10-29T10:38:09.856Z,1004.0
2017-10-29T10:39:11.993Z,1003.8
2017-10-29T10:40:13.683Z,1004.0
2017-10-29T10:41:15.797Z,1003.9
2017-10-29T10:42:17.512Z,1004.2
2017-10-29T10:43:19.209Z,1004.1
2017-10-29T10:44:22.165Z,1004.2
2017-10-29T10:45:24.581Z,1004.2
2017-10-29T10:46:26.726Z,1004.2
2017-10-29T10:47:28.600Z,1004.2
2017-10-29T10:48:30.964Z,1004.1
2017-10-29T10:49:32.959Z,1004.2
2017-10-29T10:50:34.639Z,1004.1
2017-10-29T10:51:36.331Z,1004.0
2017-10-29T10:52:38.066Z,1004.0
2017-10-29T10:53:40.287Z,1004.1
2017-10-29T10:54:42.298Z,1004.1
2017-10-29T10:55:44.470Z,1004.2
2017-10-29T10:56:46.759Z,1004.1
2017-10-29T10:57:48.896Z,1004.0
2017-10-29T10:58:51.857Z,1004.2
2017-10-29T10:59:53.735Z,1004.0
2017-10-29T11:00:55.565Z,1004.0
2017-10-29T11:01:57.528Z,1004.2
2017-10-29T11:02:59.334Z,1004.1
2017-10-29T11:04:01.221Z,1004.1
2017-10-29T11:05:03.307Z,1004.2
2017-10-29T11:06:05.183Z,1004.0
2017-10-29T11:07:06.873Z,1004.0
2017-10-29T11:08:08.383Z,1003.9
2017-10-29T11:09:09.976Z,1004.1
2017-10-29T11:10:12.091Z,1003.9
2017-10-29T11:11:14.164Z,1004.0
2017-10-29T11:12:15.647Z,1004.0
2017-10-29T11:13:17.384Z,1003.9
2017-10-29T11:14:19.217Z,1004.1
2017-10-29T11:15:21.878Z,1004.3
2017-10-29T11:16:23.776Z,1004.0
2017-10-29T11:17:25.268Z,1004.0
2017-10-29T11:18:27.295Z,1004.2
2017-10-29T11:19:28.847Z,1004.2
2017-10-29T11:20:31.128Z,1004.2
2017-10-29T11:21:33.019Z,1004.4
2017-10-29T11:22:34.580Z,1004.3
2017-10-29T11:23:36.388Z,1004.3
2017-10-29T11:24:38.460Z,1004.2
2017-10-29T11:25:40.006Z,1004.3
2017-10-29T11:26:41.614Z,1004.3
2017-10-29T11:27:43.436Z,1004.2
2017-10-29T11:28:44.955Z,1004.1
2017-10-29T11:29:46.501Z,1004.1
2017-10-29T11:30:48.250Z,1004.0
2017-10-29T11:31:49.706Z,1003.9
2017-10-29T11:32:51.192Z,1004.0
2017-10-29T11:33:53.070Z,1004.1
2017-10-29T11:34:54.641Z,1004.1
2017-10-29T11:35:56.360Z,1004.1
2017-10-29T11:36:58.116Z,1004.1
2017-10-29T11:37:59.616Z,1004.1
2017-10-29T11:39:01.095Z,1004.2
2017-10-29T11:40:02.900Z,1004.1
2017-10-29T11:41:04.368Z,1004.1
2017-10-29T11:42:06.237Z,1004.1
2017-10-29T11:43:08.061Z,1004.0
2017-10-29T11:44:09.525Z,1004.1
2017-10-29T11:45:11.054Z,1004.2
2017-10-29T11:46:12.515Z,1004.1
2017-10-29T11:47:13.962Z,1004.2
2017-10-29T11:48:15.435Z,1004.2
2017-10-29T11:49:16.860Z,1004.3
2017-10-29T11:50:18.528Z,1004.4
2017-10-29T11:51:20.277Z,1004.4
2017-10-29T11:52:21.980Z,1004.5
2017-10-29T11:53:23.512Z,1004.6
2017-10-29T11:54:25.234Z,1004.4
2017-10-29T11:55:26.809Z,1004.5
2017-10-29T11:56:28.572Z,1004.4
2017-10-29T11:57:30.008Z,1004.3
2017-10-29T11:58:31.909Z,1004.3
2017-10-29T11:59:33.390Z,1004.5
2017-10-29T12:00:34.923Z,1004.5
2017-10-29T12:01:36.474Z,1004.6
2017-10-29T12:02:38.006Z,1004.8
2017-10-29T12:03:39.489Z,1004.6
2017-10-29T12:04:41.005Z,1004.7
2017-10-29T12:05:42.524Z,1004.8
2017-10-29T12:06:44.368Z,1004.7
2017-10-29T12:07:46.108Z,1004.8
2017-10-29T12:08:47.563Z,1004.8
2017-10-29T12:09:49.419Z,1004.8
2017-10-29T12:10:51.202Z,1004.9
2017-10-29T12:11:52.726Z,1004.9
2017-10-29T12:12:54.441Z,1004.9
2017-10-29T12:13:56.047Z,1004.8
2017-10-29T12:14:58.062Z,1004.9
2017-10-29T12:15:59.734Z,1004.9
2017-10-29T12:17:01.792Z,1004.8
2017-10-29T12:18:03.290Z,1005.1
2017-10-29T12:19:05.147Z,1005.0
2017-10-29T12:20:06.688Z,1005.0
2017-10-29T12:21:08.205Z,1004.8
2017-10-29T12:22:09.760Z,1005.1
2017-10-29T12:23:11.541Z,1005.1
2017-10-29T12:24:13.174Z,1005.2
2017-10-29T12:25:14.692Z,1005.1
2017-10-29T12:26:16.155Z,1005.1
2017-10-29T12:27:17.943Z,1005.1
2017-10-29T12:28:19.514Z,1005.2
2017-10-29T12:29:21.301Z,1004.9
2017-10-29T12:30:22.742Z,1005.1
2017-10-29T12:31:24.547Z,1005.0
2017-10-29T12:32:26.529Z,1005.1
2017-10-29T12:33:28.475Z,1005.2
2017-10-29T12:34:30.137Z,1005.2
2017-10-29T12:35:31.759Z,1005.2
2017-10-29T12:36:33.605Z,1005.1
2017-10-29T12:37:35.864Z,1005.2
2017-10-29T12:38:37.659Z,1005.1
2017-10-29T12:39:39.608Z,1005.3
2017-10-29T12:40:41.172Z,1005.2
2017-10-29T12:41:42.686Z,1005.0
2017-10-29T12:42:44.472Z,1005.1
2017-10-29T12:43:46.250Z,1005.2
2017-10-29T12:44:48.098Z,1005.2
2017-10-29T12:45:49.576Z,1005.3
2017-10-29T12:46:51.050Z,1005.3
2017-10-29T12:47:53.013Z,1005.3
2017-10-29T12:48:54.977Z,1005.3
2017-10-29T12:49:56.752Z,1005.1
2017-10-29T12:50:58.425Z,1005.3
2017-10-29T12:52:00.267Z,1005.3
2017-10-29T12:53:02.097Z,1005.2
2017-10-29T12:54:03.942Z,1005.1
2017-10-29T12:55:05.805Z,1005.3
2017-10-29T12:56:07.622Z,1005.4
2017-10-29T12:57:09.220Z,1005.2
2017-10-29T12:58:11.262Z,1005.3
2017-10-29T12:59:13.125Z,1005.4
2017-10-29T13:00:14.672Z,1005.1
2017-10-29T13:01:16.588Z,1005.1
2017-10-29T13:02:18.395Z,1005.4
2017-10-29T13:03:20.170Z,1005.2
2017-10-29T13:04:22.051Z,1005.1
2017-10-29T13:05:23.959Z,1005.4
2017-10-29T13:06:25.569Z,1005.2
2017-10-29T13:07:27.346Z,1005.3
2017-10-29T13:08:28.963Z,1005.3
2017-10-29T13:09:30.459Z,1005.5
2017-10-29T13:10:31.942Z,1005.5
2017-10-29T13:11:33.734Z,1005.4
2017-10-29T13:12:35.400Z,1005.5
2017-10-29T13:13:37.215Z,1005.5
2017-10-29T13:14:38.947Z,1005.3
2017-10-29T13:15:40.715Z,1005.3
2017-10-29T13:16:42.450Z,1005.4
2017-10-29T13:17:44.207Z,1005.3
2017-10-29T13:18:45.920Z,1005.3
2017-10-29T13:19:47.635Z,1005.4
2017-10-29T13:20:49.183Z,1005.6
2017-10-29T13:21:50.817Z,1005.6
2017-10-29T13:22:52.564Z,1005.5
2017-10-29T13:23:54.425Z,1005.6
2017-10-29T13:24:56.256Z,1005.6
2017-10-29T13:25:58.108Z,1005.7
2017-10-29T13:26:59.835Z,1005.7
2017-10-29T13:28:01.701Z,1005.7
2017-10-29T13:29:03.279Z,1005.7
2017-10-29T13:30:04.740Z,1005.7
2017-10-29T13:31:06.541Z,1005.7
2017-10-29T13:32:08.285Z,1005.7
2017-10-29T13:33:09.818Z,1005.8
2017-10-29T13:34:11.315Z,1005.8
2017-10-29T13:35:12.981Z,1005.9
2017-10-29T13:36:14.704Z,1006.0
2017-10-29T13:37:16.383Z,1005.8
2017-10-29T13:38:17.869Z,1005.9
2017-10-29T13:39:19.648Z,1005.8
2017-10-29T13:40:21.176Z,1005.8
2017-10-29T13:41:22.889Z,1005.9
2017-10-29T13:42:24.725Z,1005.9
2017-10-29T13:43:26.501Z,1005.9
2017-10-29T13:44:27.954Z,1006.0
2017-10-29T13:45:29.499Z,1005.7
2017-10-29T13:46:31.272Z,1005.7
2017-10-29T13:47:32.777Z,1006.0
2017-10-29T13:48:34.535Z,1005.9
2017-10-29T13:49:36.210Z,1006.1
2017-10-29T13:50:37.997Z,1006.0
2017-10-29T13:51:39.748Z,1006.1
2017-10-29T13:52:41.485Z,1006.1
2017-10-29T13:53:43.314Z,1006.1
2017-10-29T13:54:45.173Z,1006.0
2017-10-29T13:55:46.695Z,1006.0
2017-10-29T13:56:48.421Z,1006.1
2017-10-29T13:57:50.163Z,1006.0
2017-10-29T13:58:51.825Z,1006.1
2017-10-29T13:59:53.590Z,1006.0
2017-10-29T14:00:55.380Z,1006.1
2017-10-29T14:01:57.141Z,1006.1
2017-10-29T14:02:58.886Z,1006.1
2017-10-29T14:04:00.630Z,1006.0
2017-10-29T14:05:02.161Z,1006.0
2017-10-29T14:06:03.663Z,1006.0
2017-10-29T14:07:05.153Z,1006.2
2017-10-29T14:08:07.007Z,1006.2
2017-10-29T14:09:08.742Z,1006.2
2017-10-29T14:10:10.564Z,1006.3
2017-10-29T14:11:12.342Z,1006.3
2017-10-29T14:12:14.147Z,1006.4
2017-10-29T14:13:15.927Z,1006.3
2017-10-29T14:14:17.729Z,1006.3
2017-10-29T14:15:19.501Z,1006.3
2017-10-29T14:16:21.234Z,1006.3
2017-10-29T14:17:23.000Z,1006.3
2017-10-29T14:18:24.764Z,1006.3
2017-10-29T14:19:26.575Z,1006.3
2017-10-29T14:20:28.152Z,1006.4
2017-10-29T14:21:29.823Z,1006.4
2017-10-29T14:22:31.389Z,1006.3
2017-10-29T14:23:33.246Z,1006.4
2017-10-29T14:24:34.724Z,1006.4
2017-10-29T14:25:36.185Z,1006.4
2017-10-29T14:26:37.704Z,1006.3
2017-10-29T14:27:39.170Z,1006.3
2017-10-29T14:28:40.644Z,1006.3
2017-10-29T14:29:42.411Z,1006.4
2017-10-29T14:30:44.202Z,1006.4
2017-10-29T14:31:45.927Z,1006.3
2017-10-29T14:32:47.737Z,1006.3
2017-10-29T14:33:49.759Z,1006.3
2017-10-29T14:34:51.488Z,1006.4
2017-10-29T14:35:53.282Z,1006.2
2017-10-29T14:36:55.015Z,1006.2
2017-10-29T14:37:56.880Z,1006.3
2017-10-29T14:38:58.767Z,1006.1
2017-10-29T14:40:00.543Z,1006.1
2017-10-29T14:41:02.528Z,1006.2
2017-10-29T14:42:04.209Z,1006.2
2017-10-29T14:43:05.755Z,1006.2
2017-10-29T14:44:07.549Z,1006.2
2017-10-29T14:45:09.347Z,1006.3
2017-10-29T14:46:11.093Z,1006.3
2017-10-29T14:47:12.930Z,1006.2
2017-10-29T14:48:14.681Z,1006.3
2017-10-29T14:49:16.530Z,1006.3
2017-10-29T14:50:18.296Z,1006.3
2017-10-29T14:51:20.025Z,1006.2
2017-10-29T14:52:21.695Z,1006.3
2017-10-29T14:53:23.418Z,1006.3
2017-10-29T14:54:25.077Z,1006.3
2017-10-29T14:55:26.573Z,1006.3
2017-10-29T14:56:28.122Z,1006.2
2017-10-29T14:57:29.808Z,1006.3
2017-10-29T14:58:31.551Z,1006.3
2017-10-29T14:59:33.283Z,1006.3
2017-10-29T15:00:35.195Z,1006.3
2017-10-29T15:01:36.993Z,1006.3
2017-10-29T15:02:38.537Z,1006.3
2017-10-29T15:03:40.324Z,1006.3
2017-10-29T15:04:42.099Z,1006.3
2017-10-29T15:05:43.832Z,1006.3
2017-10-29T15:06:45.535Z,1006.3
2017-10-29T15:07:47.337Z,1006.4
2017-10-29T15:08:48.760Z,1006.3
2017-10-29T15:09:50.273Z,1006.2
2017-10-29T15:10:51.815Z,1006.3
2017-10-29T15:11:53.487Z,1006.3
2017-10-29T15:12:55.175Z,1006.3
2017-10-29T15:13:56.940Z,1006.3
2017-10-29T15:14:58.464Z,1006.4
2017-10-29T15:15:59.910Z,1006.4
2017-10-29T15:17:01.360Z,1006.4
2017-10-29T15:18:02.784Z,1006.3
2017-10-29T15:19:04.253Z,1006.4
2017-10-29T15:20:05.715Z,1006.3
2017-10-29T15:21:07.190Z,1006.3
2017-10-29T15:22:08.730Z,1006.4
2017-10-29T15:23:10.209Z,1006.4
2017-10-29T15:24:11.703Z,1006.5
2017-10-29T15:25:13.149Z,1006.5
2017-10-29T15:26:14.624Z,1006.5
2017-10-29T15:27:16.088Z,1006.4
2017-10-29T15:28:17.553Z,1006.5
2017-10-29T15:29:19.043Z,1006.5
2017-10-29T15:30:20.487Z,1006.5
2017-10-29T15:31:21.941Z,1006.5
2017-10-29T15:32:23.367Z,1006.5
2017-10-29T15:33:24.897Z,1006.5
2017-10-29T15:34:26.340Z,1006.6
2017-10-29T15:35:28.084Z,1006.5
2017-10-29T15:36:29.550Z,1006.5
2017-10-29T15:37:30.993Z,1006.5
2017-10-29T15:38:32.519Z,1006.5
2017-10-29T15:39:33.934Z,1006.5
2017-10-29T15:40:35.391Z,1006.6
2017-10-29T15:41:36.917Z,1006.6
2017-10-29T15:42:38.374Z,1006.5
2017-10-29T15:43:39.871Z,1006.6
2017-10-29T15:44:41.289Z,1006.6
2017-10-29T15:45:42.710Z,1006.6
2017-10-29T15:46:44.154Z,1006.7
2017-10-29T15:47:45.637Z,1006.7
2017-10-29T15:48:47.128Z,1006.8
2017-10-29T15:49:48.629Z,1006.8
2017-10-29T15:50:50.100Z,1006.7
2017-10-29T15:51:51.632Z,1006.8
2017-10-29T15:52:53.302Z,1006.8
2017-10-29T15:53:55.119Z,1006.8
2017-10-29T15:54:56.777Z,1006.9
2017-10-29T15:55:58.496Z,1006.8
2017-10-29T15:57:00.212Z,1006.9
2017-10-29T15:58:01.694Z,1006.9
2017-10-29T15:59:03.186Z,1006.9
2017-10-29T16:00:04.679Z,1007.0
2017-10-29T16:01:06.135Z,1007.0
2017-10-29T16:02:07.622Z,1007.0
2017-10-29T16:03:09.107Z,1007.0
2017-10-29T16:04:10.617Z,1007.0
2017-10-29T16:05:12.097Z,1007.0
2017-10-29T16:06:13.531Z,1007.1
2017-10-29T16:07:15.179Z,1007.1
2017-10-29T16:08:16.840Z,1007.1
2017-10-29T16:09:18.557Z,1007.1
2017-10-29T16:10:20.030Z,1007.2
2017-10-29T16:11:21.513Z,1007.1
2017-10-29T16:12:23.217Z,1007.2
2017-10-29T16:13:24.961Z,1007.2
2017-10-29T16:14:26.708Z,1007.2
2017-10-29T16:15:28.233Z,1007.2
2017-10-29T16:16:29.720Z,1007.2
2017-10-29T16:17:31.319Z,1007.2
2017-10-29T16:18:32.858Z,1007.3
2017-10-29T16:19:34.474Z,1007.3
2017-10-29T16:20:35.957Z,1007.3
2017-10-29T16:21:37.641Z,1007.4
2017-10-29T16:22:39.315Z,1007.4
2017-10-29T16:23:42.201Z,1007.4
2017-10-29T16:24:43.908Z,1007.5
2017-10-29T16:25:45.661Z,1007.6
2017-10-29T16:26:47.564Z,1007.6
2017-10-29T16:27:49.333Z,1007.7
2017-10-29T16:28:50.977Z,1007.7
2017-10-29T16:29:52.829Z,1007.8
2017-10-29T16:30:54.494Z,1007.8
2017-10-29T16:31:55.955Z,1007.8
2017-10-29T16:32:57.528Z,1007.8
2017-10-29T16:33:59.315Z,1007.8
2017-10-29T16:35:00.997Z,1007.8
2017-10-29T16:36:02.775Z,1007.8
2017-10-29T16:37:04.288Z,1007.8
2017-10-29T16:38:06.073Z,1007.8
2017-10-29T16:39:07.621Z,1007.9
2017-10-29T16:40:09.308Z,1007.9
2017-10-29T16:41:11.258Z,1007.9
2017-10-29T16:42:12.946Z,1007.9
2017-10-29T16:43:14.628Z,1007.8
2017-10-29T16:44:16.367Z,1007.8
2017-10-29T16:45:18.259Z,1007.8
2017-10-29T16:46:20.149Z,1007.8
2017-10-29T16:47:21.945Z,1007.9
2017-10-29T16:48:23.503Z,1007.9
2017-10-29T16:49:27.243Z,1007.9
2017-10-29T16:50:29.020Z,1007.9
2017-10-29T16:51:30.536Z,1007.8
2017-10-29T16:52:32.324Z,1007.8
2017-10-29T16:53:34.050Z,1007.9
2017-10-29T16:54:35.737Z,1007.9
2017-10-29T16:55:37.465Z,1007.9
2017-10-29T16:56:38.988Z,1007.9
2017-10-29T16:57:40.846Z,1007.9
2017-10-29T16:58:42.425Z,1007.9
2017-10-29T16:59:43.958Z,1007.9
2017-10-29T17:00:45.703Z,1008.0
2017-10-29T17:01:47.483Z,1008.0
2017-10-29T17:02:49.151Z,1008.0
2017-10-29T17:03:50.829Z,1008.0
2017-10-29T17:04:52.657Z,1008.0
2017-10-29T17:05:54.247Z,1008.0
2017-10-29T17:06:55.733Z,1008.1
2017-10-29T17:07:58.512Z,1008.1
2017-10-29T17:09:00.253Z,1008.1
2017-10-29T17:10:02.007Z,1008.1
2017-10-29T17:11:03.768Z,1008.1
2017-10-29T17:12:05.536Z,1008.1
2017-10-29T17:13:07.333Z,1008.2
2017-10-29T17:14:08.996Z,1008.1
2017-10-29T17:15:10.483Z,1008.2
2017-10-29T17:16:12.412Z,1008.2
2017-10-29T17:17:14.249Z,1008.2
2017-10-29T17:18:15.976Z,1008.2
2017-10-29T17:19:17.759Z,1008.3
2017-10-29T17:20:19.503Z,1008.3
2017-10-29T17:21:21.227Z,1008.2
2017-10-29T17:22:22.855Z,1008.3
2017-10-29T17:23:24.699Z,1008.3
2017-10-29T17:24:26.659Z,1008.3
2017-10-29T17:25:28.424Z,1008.3
2017-10-29T17:26:30.073Z,1008.3
2017-10-29T17:27:32.000Z,1008.3
2017-10-29T17:28:33.699Z,1008.4
2017-10-29T17:29:35.373Z,1008.4
2017-10-29T17:30:37.148Z,1008.4
2017-10-29T17:31:38.619Z,1008.4
2017-10-29T17:32:40.377Z,1008.4
2017-10-29T17:33:41.971Z,1008.5
2017-10-29T17:34:43.434Z,1008.5
2017-10-29T17:35:44.925Z,1008.6
2017-10-29T17:36:46.630Z,1008.6
2017-10-29T17:37:48.340Z,1008.6
2017-10-29T17:38:50.019Z,1008.6
2017-10-29T17:39:51.772Z,1008.6
2017-10-29T17:40:53.502Z,1008.6
2017-10-29T17:41:54.963Z,1008.6
2017-10-29T17:42:56.747Z,1008.6
2017-10-29T17:43:58.430Z,1008.6
2017-10-29T17:45:00.136Z,1008.6
2017-10-29T17:46:01.839Z,1008.6
2017-10-29T17:47:03.569Z,1008.7
2017-10-29T17:48:05.314Z,1008.7
2017-10-29T17:49:06.969Z,1008.7
2017-10-29T17:50:08.723Z,1008.8
2017-10-29T17:51:10.220Z,1008.8
2017-10-29T17:52:11.978Z,1008.8
2017-10-29T17:53:13.639Z,1008.8
2017-10-29T17:54:15.383Z,1008.8
2017-10-29T17:55:17.054Z,1008.8
2017-10-29T17:56:18.716Z,1008.8
2017-10-29T17:57:20.348Z,1008.8
2017-10-29T17:58:22.023Z,1008.8
2017-10-29T17:59:23.678Z,1008.8
2017-10-29T18:00:25.377Z,1008.7
2017-10-29T18:01:27.111Z,1008.8
2017-10-29T18:02:28.868Z,1008.9
2017-10-29T18:03:30.330Z,1008.9
2017-10-29T18:04:31.963Z,1008.9
2017-10-29T18:05:33.623Z,1008.9
2017-10-29T18:06:35.082Z,1008.9
2017-10-29T18:07:36.789Z,1009.0
2017-10-29T18:08:38.291Z,1008.9
2017-10-29T18:09:39.770Z,1009.0
2017-10-29T18:10:41.233Z,1009.1
2017-10-29T18:11:42.970Z,1009.1
2017-10-29T18:12:44.664Z,1009.1
2017-10-29T18:13:46.184Z,1009.1
2017-10-29T18:14:47.942Z,1009.1
2017-10-29T18:15:49.657Z,1009.1
2017-10-29T18:16:51.125Z,1009.1
2017-10-29T18:17:53.001Z,1009.2
2017-10-29T18:18:54.709Z,1009.2
2017-10-29T18:19:56.415Z,1009.2
2017-10-29T18:20:58.095Z,1009.2
2017-10-29T18:21:59.773Z,1009.2
2017-10-29T18:23:01.262Z,1009.2
2017-10-29T18:24:02.762Z,1009.3
2017-10-29T18:25:04.516Z,1009.2
2017-10-29T18:26:06.202Z,1009.2
2017-10-29T18:27:07.982Z,1009.3
2017-10-29T18:28:09.469Z,1009.3
2017-10-29T18:29:11.182Z,1009.3
2017-10-29T18:30:12.935Z,1009.3
2017-10-29T18:31:14.608Z,1009.3
2017-10-29T18:32:16.063Z,1009.3
2017-10-29T18:33:17.900Z,1009.4
2017-10-29T18:34:19.568Z,1009.4
2017-10-29T18:35:21.202Z,1009.3
2017-10-29T18:36:22.930Z,1009.4
2017-10-29T18:37:24.635Z,1009.4
2017-10-29T18:38:26.082Z,1009.3
2017-10-29T18:39:27.783Z,1009.3
2017-10-29T18:40:29.438Z,1009.3
2017-10-29T18:41:30.989Z,1009.4
2017-10-29T18:42:32.609Z,1009.4
2017-10-29T18:43:34.251Z,1009.3
2017-10-29T18:44:35.965Z,1009.4
2017-10-29T18:45:37.649Z,1009.4
2017-10-29T18:46:39.280Z,1009.4
2017-10-29T18:47:41.008Z,1009.4
2017-10-29T18:48:42.822Z,1009.4
2017-10-29T18:49:44.460Z,1009.4
2017-10-29T18:50:46.191Z,1009.4
2017-10-29T18:51:47.909Z,1009.4
2017-10-29T18:52:49.361Z,1009.5
2017-10-29T18:53:51.058Z,1009.4
2017-10-29T18:54:52.828Z,1009.4
2017-10-29T18:55:54.271Z,1009.4
2017-10-29T18:56:55.730Z,1009.4
2017-10-29T18:57:57.305Z,1009.4
2017-10-29T18:58:58.990Z,1009.4
2017-10-29T19:00:00.712Z,1009.4
2017-10-29T19:01:02.375Z,1009.4
2017-10-29T19:02:04.025Z,1009.4
2017-10-29T19:03:05.812Z,1009.5
2017-10-29T19:04:07.585Z,1009.4
2017-10-29T19:05:09.257Z,1009.5
2017-10-29T19:06:10.792Z,1009.4
2017-10-29T19:07:12.523Z,1009.4
2017-10-29T19:08:14.087Z,1009.4
2017-10-29T19:09:15.863Z,1009.5
2017-10-29T19:10:17.517Z,1009.4
2017-10-29T19:11:19.316Z,1009.4
2017-10-29T19:12:21.020Z,1009.5
2017-10-29T19:13:22.735Z,1009.5
2017-10-29T19:14:24.173Z,1009.4
2017-10-29T19:15:25.873Z,1009.5
2017-10-29T19:16:27.530Z,1009.5
2017-10-29T19:17:29.244Z,1009.5
2017-10-29T19:18:30.917Z,1009.5
2017-10-29T19:19:32.620Z,1009.5
2017-10-29T19:20:34.307Z,1009.5
2017-10-29T19:21:35.886Z,1009.5
2017-10-29T19:22:37.325Z,1009.5
2017-10-29T19:23:38.969Z,1009.5
2017-10-29T19:24:40.556Z,1009.5
2017-10-29T19:25:42.282Z,1009.5
2017-10-29T19:26:43.941Z,1009.5
2017-10-29T19:27:45.592Z,1009.5
2017-10-29T19:28:47.154Z,1009.5
2017-10-29T19:29:48.947Z,1009.5
2017-10-29T19:30:50.544Z,1009.6
2017-10-29T19:31:52.190Z,1009.5
2017-10-29T19:32:53.927Z,1009.5
2017-10-29T19:33:55.631Z,1009.5
2017-10-29T19:34:57.086Z,1009.5
2017-10-29T19:35:58.796Z,1009.6
2017-10-29T19:37:00.507Z,1009.5
2017-10-29T19:38:02.024Z,1009.6
2017-10-29T19:39:03.651Z,1009.7
2017-10-29T19:40:05.388Z,1009.7
2017-10-29T19:41:07.111Z,1009.7
2017-10-29T19:42:08.800Z,1009.7
2017-10-29T19:43:10.234Z,1009.7
2017-10-29T19:44:11.910Z,1009.7
2017-10-29T19:45:13.639Z,1009.8
2017-10-29T19:46:15.295Z,1009.8
2017-10-29T19:47:16.994Z,1009.8
2017-10-29T19:48:18.709Z,1009.8
2017-10-29T19:49:20.352Z,1009.8
2017-10-29T19:50:22.018Z,1009.7
2017-10-29T19:51:23.793Z,1009.8
2017-10-29T19:52:25.451Z,1009.8
2017-10-29T19:53:26.983Z,1009.8
2017-10-29T19:54:28.738Z,1009.8
2017-10-29T19:55:30.529Z,1009.9
2017-10-29T19:56:32.218Z,1009.8
2017-10-29T19:57:33.905Z,1009.8
2017-10-29T19:58:35.537Z,1009.9
2017-10-29T19:59:37.152Z,1009.9
2017-10-29T20:00:38.792Z,1009.9
2017-10-29T20:01:40.297Z,1009.9
2017-10-29T20:02:41.748Z,1009.9
2017-10-29T20:03:43.197Z,1009.9
2017-10-29T20:04:44.639Z,1009.9
2017-10-29T20:05:46.203Z,1009.9
2017-10-29T20:06:47.776Z,1009.9
2017-10-29T20:07:49.256Z,1009.9
2017-10-29T20:08:50.866Z,1009.9
2017-10-29T20:09:52.307Z,1009.9
2017-10-29T20:10:53.992Z,1009.9
2017-10-29T20:11:55.729Z,1009.9
2017-10-29T20:12:57.395Z,1009.9
2017-10-29T20:13:59.086Z,1009.9
2017-10-29T20:15:00.524Z,1009.9
2017-10-29T20:16:02.218Z,1010.0
2017-10-29T20:17:03.959Z,1010.0
2017-10-29T20:18:05.689Z,1009.9
2017-10-29T20:19:07.375Z,1010.0
2017-10-29T20:20:09.093Z,1010.0
2017-10-29T20:21:10.804Z,1010.0
2017-10-29T20:22:12.281Z,1010.1
2017-10-29T20:23:13.936Z,1010.0
2017-10-29T20:24:15.520Z,1010.1
2017-10-29T20:25:16.969Z,1010.1
2017-10-29T20:26:18.434Z,1010.1
2017-10-29T20:27:20.134Z,1010.1
2017-10-29T20:28:21.798Z,1010.1
2017-10-29T20:29:23.434Z,1010.1
2017-10-29T20:30:25.129Z,1010.2
2017-10-29T20:31:26.865Z,1010.2
2017-10-29T20:32:29.068Z,1010.2
2017-10-29T20:33:30.827Z,1010.2
2017-10-29T20:34:32.405Z,1010.2
2017-10-29T20:35:34.088Z,1010.2
2017-10-29T20:36:35.830Z,1010.2
2017-10-29T20:37:37.444Z,1010.2
2017-10-29T20:38:39.226Z,1010.2
2017-10-29T20:39:40.656Z,1010.2
2017-10-29T20:40:42.395Z,1010.2
2017-10-29T20:41:44.124Z,1010.3
2017-10-29T20:42:45.787Z,1010.2
2017-10-29T20:43:47.446Z,1010.3
2017-10-29T20:44:48.918Z,1010.3
2017-10-29T20:45:50.528Z,1010.3
2017-10-29T20:46:52.068Z,1010.3
2017-10-29T20:47:53.758Z,1010.3
2017-10-29T20:48:55.390Z,1010.3
2017-10-29T20:49:57.114Z,1010.3
2017-10-29T20:50:58.900Z,1010.3
2017-10-29T20:52:00.382Z,1010.4
2017-10-29T20:53:01.835Z,1010.4
2017-10-29T20:54:03.549Z,1010.4
2017-10-29T20:55:05.126Z,1010.4
2017-10-29T20:56:06.917Z,1010.3
2017-10-29T20:57:08.618Z,1010.4
2017-10-29T20:58:10.245Z,1010.4
2017-10-29T20:59:11.918Z,1010.4
2017-10-29T21:00:13.621Z,1010.4
2017-10-29T21:01:15.353Z,1010.4
2017-10-29T21:02:17.113Z,1010.4
2017-10-29T21:03:18.813Z,1010.5
2017-10-29T21:04:20.532Z,1010.5
2017-10-29T21:05:22.039Z,1010.6
2017-10-29T21:06:23.633Z,1010.6
2017-10-29T21:07:25.285Z,1010.6
2017-10-29T21:08:26.786Z,1010.6
2017-10-29T21:09:28.566Z,1010.6
2017-10-29T21:10:30.014Z,1010.6
2017-10-29T21:11:31.794Z,1010.6
2017-10-29T21:12:33.373Z,1010.7
2017-10-29T21:13:35.050Z,1010.7
2017-10-29T21:14:36.774Z,1010.7
2017-10-29T21:15:38.451Z,1010.7
2017-10-29T21:16:39.880Z,1010.7
2017-10-29T21:17:41.378Z,1010.7
2017-10-29T21:18:43.094Z,1010.7
2017-10-29T21:19:44.657Z,1010.7
2017-10-29T21:20:46.551Z,1010.7
2017-10-29T21:21:48.047Z,1010.7
2017-10-29T21:22:49.643Z,1010.8
2017-10-29T21:23:51.365Z,1010.8
2017-10-29T21:24:53.033Z,1010.8
2017-10-29T21:25:54.726Z,1010.8
2017-10-29T21:26:56.388Z,1010.8
2017-10-29T21:27:58.010Z,1010.8
2017-10-29T21:28:59.725Z,1010.8
2017-10-29T21:30:01.359Z,1010.8
2017-10-29T21:31:03.054Z,1010.8
2017-10-29T21:32:04.760Z,1010.8
2017-10-29T21:33:06.386Z,1010.8
2017-10-29T21:34:07.829Z,1010.8
2017-10-29T21:35:09.662Z,1010.8
2017-10-29T21:36:11.420Z,1010.8
2017-10-29T21:37:12.883Z,1010.8
2017-10-29T21:38:14.593Z,1010.9
2017-10-29T21:39:16.047Z,1010.8
2017-10-29T21:40:17.844Z,1010.8
2017-10-29T21:41:19.498Z,1010.8
2017-10-29T21:42:21.142Z,1010.8
2017-10-29T21:43:22.867Z,1010.8
2017-10-29T21:44:24.787Z,1010.8
2017-10-29T21:45:26.442Z,1010.8
2017-10-29T21:46:28.356Z,1010.8
2017-10-29T21:47:29.994Z,1010.8
2017-10-29T21:48:31.945Z,1010.8
2017-10-29T21:49:33.629Z,1010.8
2017-10-29T21:50:35.319Z,1010.9
2017-10-29T21:51:36.965Z,1010.9
2017-10-29T21:52:38.676Z,1011.0
2017-10-29T21:53:40.325Z,1011.0
2017-10-29T21:54:42.012Z,1010.9
2017-10-29T21:55:43.514Z,1010.9
2017-10-29T21:56:45.305Z,1011.0
2017-10-29T21:57:46.927Z,1011.0
2017-10-29T21:58:48.477Z,1011.0
2017-10-29T21:59:50.165Z,1011.0
2017-10-29T22:00:51.930Z,1011.0
2017-10-29T22:01:53.533Z,1011.0
2017-10-29T22:02:55.078Z,1011.0
2017-10-29T22:03:56.543Z,1011.1
2017-10-29T22:04:58.083Z,1011.0
2017-10-29T22:05:59.510Z,1011.0
2017-10-29T22:07:01.176Z,1011.0
2017-10-29T22:08:02.925Z,1011.0
2017-10-29T22:09:04.559Z,1010.9
2017-10-29T22:10:06.089Z,1010.9
2017-10-29T22:11:07.930Z,1010.9
2017-10-29T22:12:09.534Z,1010.9
2017-10-29T22:13:11.211Z,1010.9
2017-10-29T22:14:12.925Z,1010.9
2017-10-29T22:15:14.623Z,1010.9
2017-10-29T22:16:16.309Z,1011.0
2017-10-29T22:17:17.742Z,1011.0
2017-10-29T22:18:19.383Z,1011.0
2017-10-29T22:19:21.019Z,1011.0
2017-10-29T22:20:22.745Z,1010.9
2017-10-29T22:21:24.248Z,1011.0
2017-10-29T22:22:25.849Z,1011.0
2017-10-29T22:23:27.532Z,1011.0
2017-10-29T22:24:29.001Z,1011.0
2017-10-29T22:25:30.750Z,1011.0
2017-10-29T22:26:32.354Z,1011.0
2017-10-29T22:27:34.126Z,1010.9
2017-10-29T22:28:35.730Z,1010.9
2017-10-29T22:29:37.186Z,1010.9
2017-10-29T22:30:38.866Z,1010.9
2017-10-29T22:31:40.559Z,1010.9
2017-10-29T22:32:42.289Z,1010.9
2017-10-29T22:33:44.049Z,1010.9
2017-10-29T22:34:45.745Z,1010.9
2017-10-29T22:35:47.477Z,1010.9
2017-10-29T22:36:49.153Z,1010.9
2017-10-29T22:37:50.650Z,1010.9
2017-10-29T22:38:52.430Z,1010.9
2017-10-29T22:39:54.263Z,1010.9
2017-10-29T22:40:55.979Z,1010.9
2017-10-29T22:41:57.523Z,1010.9
2017-10-29T22:42:59.258Z,1010.9
2017-10-29T22:44:00.960Z,1010.9
2017-10-29T22:45:02.515Z,1010.9
2017-10-29T22:46:04.288Z,1011.0
2017-10-29T22:47:05.989Z,1011.0
2017-10-29T22:48:07.679Z,1011.0
2017-10-29T22:49:09.130Z,1011.0
2017-10-29T22:50:10.744Z,1011.0
2017-10-29T22:51:12.174Z,1011.0
2017-10-29T22:52:13.695Z,1011.1
2017-10-29T22:53:15.418Z,1011.0
2017-10-29T22:54:17.050Z,1011.0
2017-10-29T22:55:18.528Z,1011.0
2017-10-29T22:56:20.250Z,1011.0
2017-10-29T22:57:22.000Z,1011.0
2017-10-29T22:58:23.609Z,1011.0
2017-10-29T22:59:25.060Z,1011.0
2017-10-29T23:00:26.541Z,1011.0
2017-10-29T23:01:28.256Z,1011.0
2017-10-29T23:02:29.776Z,1011.0
2017-10-29T23:03:31.227Z,1011.0
2017-10-29T23:04:32.889Z,1011.1
2017-10-29T23:05:34.301Z,1011.0
2017-10-29T23:06:35.999Z,1011.0
2017-10-29T23:07:37.618Z,1011.0
2017-10-29T23:08:39.313Z,1011.1